createdAt,value
2018-08-25T00:04:47.639Z,16.27
2018-08-25T00:09:51.137Z,19.45
2018-08-25T00:14:54.637Z,16.10
2018-08-25T00:19:58.286Z,17.05
2018-08-25T00:25:04.037Z,15.08
2018-08-25T00:30:12.910Z,16.40
2018-08-25T00:35:16.443Z,15.13
2018-08-25T00:40:19.909Z,19.17
2018-08-25T00:45:23.466Z,17.37
2018-08-25T00:50:26.897Z,12.88
2018-08-25T00:55:30.476Z,12.80
2018-08-25T01:00:34.011Z,13.38
2018-08-25T01:05:37.561Z,13.90
2018-08-25T01:10:41.092Z,11.38
2018-08-25T01:15:44.686Z,11.85
2018-08-25T01:20:48.489Z,14.40
2018-08-25T01:25:52.011Z,12.07
2018-08-25T01:30:55.494Z,10.65
2018-08-25T01:35:58.950Z,11.95
2018-08-25T01:41:02.431Z,12.60
2018-08-25T01:46:05.946Z,12.55
2018-08-25T01:51:09.434Z,8.45
2018-08-25T01:56:12.950Z,10.98
2018-08-25T02:01:16.474Z,7.53
2018-08-25T02:06:20.090Z,7.25
2018-08-25T02:11:23.662Z,8.78
2018-08-25T02:16:27.121Z,7.40
2018-08-25T02:21:30.690Z,9.25
2018-08-25T02:26:34.314Z,9.55
2018-08-25T02:31:37.835Z,9.58
2018-08-25T02:36:41.318Z,6.95
2018-08-25T02:41:44.936Z,7.35
2018-08-25T02:46:48.462Z,6.97
2018-08-25T02:51:51.975Z,8.55
2018-08-25T02:56:55.442Z,8.43
2018-08-25T03:01:58.919Z,9.20
2018-08-25T03:07:02.392Z,7.80
2018-08-25T03:12:05.905Z,7.92
2018-08-25T03:17:09.474Z,8.20
2018-08-25T03:22:12.995Z,7.47
2018-08-25T03:27:16.553Z,8.90
2018-08-25T03:32:20.109Z,10.13
2018-08-25T03:37:23.652Z,7.47
2018-08-25T03:42:27.394Z,7.53
2018-08-25T03:47:31.015Z,7.22
2018-08-25T03:52:34.518Z,8.10
2018-08-25T03:57:38.014Z,7.62
2018-08-25T04:02:41.536Z,8.90
2018-08-25T04:07:45.151Z,6.78
2018-08-25T04:12:48.635Z,7.47
2018-08-25T04:17:52.133Z,6.95
2018-08-25T04:22:55.623Z,6.75
2018-08-25T04:27:59.278Z,6.50
2018-08-25T04:33:02.786Z,6.33
2018-08-25T04:38:06.829Z,6.50
2018-08-25T04:43:10.471Z,9.48
2018-08-25T04:48:13.924Z,6.67
2018-08-25T04:53:17.504Z,5.47
2018-08-25T04:58:21.236Z,7.78
2018-08-25T05:03:24.761Z,6.92
2018-08-25T05:08:29.035Z,5.90
2018-08-25T05:13:32.566Z,6.50
2018-08-25T05:18:36.153Z,5.80
2018-08-25T05:23:39.626Z,5.58
2018-08-25T05:28:43.104Z,7.78
2018-08-25T05:33:46.643Z,5.42
2018-08-25T05:38:50.134Z,5.80
2018-08-25T05:43:53.718Z,6.03
2018-08-25T05:48:57.192Z,5.35
2018-08-25T05:54:00.666Z,4.97
2018-08-25T05:59:04.192Z,6.20
2018-08-25T06:04:07.880Z,7.12
2018-08-25T06:09:12.902Z,6.30
2018-08-25T06:14:16.455Z,5.30
2018-08-25T06:19:20.152Z,5.97
2018-08-25T06:24:23.663Z,4.87
2018-08-25T06:29:27.195Z,6.75
2018-08-25T06:34:30.653Z,5.90
2018-08-25T06:39:34.101Z,5.17
2018-08-25T06:44:37.645Z,4.97
2018-08-25T06:49:41.167Z,5.67
2018-08-25T06:54:44.726Z,5.95
2018-08-25T06:59:48.306Z,7.05
2018-08-25T07:04:51.821Z,4.87
2018-08-25T07:09:55.293Z,5.47
2018-08-25T07:14:58.762Z,4.05
2018-08-25T07:20:04.836Z,4.92
2018-08-25T07:25:08.594Z,7.10
2018-08-25T07:30:12.070Z,5.97
2018-08-25T07:35:15.593Z,6.60
2018-08-25T07:40:19.068Z,6.00
2018-08-25T07:45:22.707Z,6.42
2018-08-25T07:50:26.117Z,5.35
2018-08-25T07:55:29.655Z,4.75
2018-08-25T08:00:33.148Z,9.33
2018-08-25T08:05:36.710Z,6.47
2018-08-25T08:10:40.094Z,3.15
2018-08-25T08:15:43.579Z,4.62
2018-08-25T08:20:47.034Z,3.98
2018-08-25T08:25:50.591Z,3.33
2018-08-25T08:30:54.109Z,4.33
2018-08-25T08:35:57.577Z,4.37
2018-08-25T08:41:01.783Z,3.02
2018-08-25T08:46:06.366Z,4.40
2018-08-25T08:51:09.861Z,2.85
2018-08-25T08:56:13.313Z,7.17
2018-08-25T09:01:16.857Z,3.05
2018-08-25T09:06:20.480Z,4.03
2018-08-25T09:11:24.035Z,2.83
2018-08-25T09:16:27.540Z,2.65
2018-08-25T09:21:30.998Z,4.15
2018-08-25T09:26:34.550Z,3.77
2018-08-25T09:31:38.051Z,3.15
2018-08-25T09:36:41.668Z,3.65
2018-08-25T09:41:45.179Z,3.30
2018-08-25T09:46:48.737Z,5.00
2018-08-25T09:51:52.256Z,5.37
2018-08-25T09:56:56.307Z,3.00
2018-08-25T10:02:00.746Z,1.85
2018-08-25T10:07:04.359Z,2.75
2018-08-25T10:12:07.827Z,8.23
2018-08-25T10:17:11.371Z,2.98
2018-08-25T10:22:15.088Z,4.78
2018-08-25T10:27:18.557Z,3.67
2018-08-25T10:32:22.182Z,3.70
2018-08-25T10:37:25.726Z,5.80
2018-08-25T10:42:29.281Z,3.52
2018-08-25T10:47:32.760Z,5.67
2018-08-25T10:52:36.521Z,5.87
2018-08-25T10:57:40.034Z,6.78
2018-08-25T11:02:43.526Z,6.37
2018-08-25T11:07:47.029Z,3.58
2018-08-25T11:12:50.553Z,5.28
2018-08-25T11:17:54.066Z,2.72
2018-08-25T11:22:57.646Z,5.15
2018-08-25T11:28:01.148Z,6.00
2018-08-25T11:33:04.613Z,1.52
2018-08-25T11:38:08.197Z,8.40
2018-08-25T11:43:11.690Z,4.47
2018-08-25T11:48:15.256Z,6.35
2018-08-25T11:53:18.738Z,4.03
2018-08-25T11:58:22.770Z,4.40
2018-08-25T12:03:26.293Z,2.52
2018-08-25T12:08:30.187Z,2.75
2018-08-25T12:13:33.989Z,3.80
2018-08-25T12:18:37.881Z,4.20
2018-08-25T12:23:41.642Z,2.20
2018-08-25T12:28:45.117Z,4.40
2018-08-25T12:33:48.623Z,4.00
2018-08-25T12:38:52.080Z,2.52
2018-08-25T12:43:55.523Z,5.85
2018-08-25T12:48:59.447Z,3.45
2018-08-25T12:54:03.199Z,2.42
2018-08-25T12:59:06.987Z,1.32
2018-08-25T13:04:10.637Z,1.65
2018-08-25T13:09:14.405Z,2.10
2018-08-25T13:14:18.113Z,1.60
2018-08-25T13:19:21.906Z,1.75
2018-08-25T13:24:25.459Z,2.85
2018-08-25T13:29:28.981Z,2.40
2018-08-25T13:34:32.499Z,0.82
2018-08-25T13:39:35.929Z,1.98
2018-08-25T13:44:39.434Z,3.27
2018-08-25T13:49:42.926Z,2.00
2018-08-25T13:54:46.402Z,4.47
2018-08-25T13:59:49.893Z,1.15
2018-08-25T14:04:53.413Z,1.65
2018-08-25T14:09:56.886Z,0.68
2018-08-25T14:15:00.465Z,0.40
2018-08-25T14:20:08.198Z,1.12
2018-08-25T14:25:11.689Z,1.52
2018-08-25T14:30:15.232Z,0.70
2018-08-25T14:35:18.735Z,1.70
2018-08-25T14:40:22.370Z,3.85
2018-08-25T14:45:25.851Z,0.63
2018-08-25T14:50:29.349Z,1.27
2018-08-25T14:55:32.818Z,0.98
2018-08-25T15:00:36.888Z,1.90
2018-08-25T15:05:40.410Z,1.50
2018-08-25T15:10:43.977Z,1.00
2018-08-25T15:15:47.505Z,1.12
2018-08-25T15:20:55.628Z,2.67
2018-08-25T15:25:59.130Z,2.55
2018-08-25T15:31:02.714Z,1.95
2018-08-25T15:36:06.520Z,2.58
2018-08-25T15:41:10.067Z,0.68
2018-08-25T15:46:13.785Z,1.00
2018-08-25T15:51:17.288Z,1.22
2018-08-25T15:56:20.824Z,2.60
2018-08-25T16:01:24.351Z,3.20
2018-08-25T16:06:27.797Z,0.60
2018-08-25T16:11:31.348Z,2.52
2018-08-25T16:16:34.835Z,1.95
2018-08-25T16:21:38.304Z,1.57
2018-08-25T16:26:41.788Z,1.10
2018-08-25T16:31:45.293Z,1.05
2018-08-25T16:36:48.854Z,0.90
2018-08-25T16:41:52.378Z,1.50
2018-08-25T16:46:55.902Z,2.00
2018-08-25T16:51:59.362Z,1.55
2018-08-25T16:57:03.385Z,2.35
2018-08-25T17:02:06.970Z,4.05
2018-08-25T17:07:10.439Z,1.30
2018-08-25T17:12:13.886Z,2.47
2018-08-25T17:17:17.418Z,2.22
2018-08-25T17:22:20.963Z,1.50
2018-08-25T17:27:24.544Z,1.02
2018-08-25T17:32:28.179Z,0.90
2018-08-25T17:37:31.674Z,0.93
2018-08-25T17:42:35.375Z,1.05
2018-08-25T17:47:38.918Z,0.85
2018-08-25T17:52:42.481Z,1.22
2018-08-25T17:57:46.203Z,1.60
2018-08-25T18:02:49.886Z,1.92
2018-08-25T18:07:53.628Z,1.72
2018-08-25T18:12:57.443Z,2.90
2018-08-25T18:18:01.028Z,1.30
2018-08-25T18:23:04.696Z,2.40
2018-08-25T18:28:08.235Z,3.77
2018-08-25T18:33:11.736Z,5.62
2018-08-25T18:38:15.289Z,2.65
2018-08-25T18:43:18.810Z,2.60
2018-08-25T18:48:22.468Z,1.35
2018-08-25T18:53:25.964Z,1.42
2018-08-25T18:58:29.491Z,0.90
2018-08-25T19:03:33.055Z,0.90
2018-08-25T19:08:36.737Z,0.90
2018-08-25T19:13:40.158Z,1.32
2018-08-25T19:18:43.607Z,2.17
2018-08-25T19:23:47.092Z,1.27
2018-08-25T19:28:50.510Z,1.00
2018-08-25T19:33:54.329Z,0.82
2018-08-25T19:38:57.930Z,0.90
2018-08-25T19:44:01.411Z,1.67
2018-08-25T19:49:04.982Z,0.70
2018-08-25T19:54:08.520Z,1.00
2018-08-25T19:59:12.294Z,1.20
2018-08-25T20:04:15.890Z,1.87
2018-08-25T20:09:19.413Z,1.00
2018-08-25T20:14:22.958Z,0.82
2018-08-25T20:19:26.506Z,0.80
2018-08-25T20:24:29.985Z,3.67
2018-08-25T20:29:33.566Z,1.15
2018-08-25T20:34:37.100Z,1.10
2018-08-25T20:39:40.701Z,1.77
2018-08-25T20:44:44.195Z,1.17
2018-08-25T20:49:54.353Z,1.50
2018-08-25T20:54:58.026Z,1.30
2018-08-25T21:00:01.727Z,1.73
2018-08-25T21:05:05.462Z,1.03
2018-08-25T21:10:09.368Z,1.93
2018-08-25T21:15:12.961Z,2.02
2018-08-25T21:20:16.495Z,1.55
2018-08-25T21:25:19.991Z,3.20
2018-08-25T21:30:23.771Z,5.30
2018-08-25T21:35:27.381Z,2.35
2018-08-25T21:40:30.797Z,1.80
2018-08-25T21:45:34.311Z,3.03
2018-08-25T21:50:37.783Z,1.37
2018-08-25T21:55:41.198Z,1.57
2018-08-25T22:00:50.019Z,1.57
2018-08-25T22:05:54.822Z,2.10
2018-08-25T22:10:58.445Z,3.90
2018-08-25T22:16:02.955Z,1.07
2018-08-25T22:21:06.414Z,1.30
2018-08-25T22:26:09.966Z,2.70
2018-08-25T22:31:13.493Z,1.20
2018-08-25T22:36:17.061Z,1.30
2018-08-25T22:41:20.801Z,1.83
2018-08-25T22:46:24.193Z,4.20
2018-08-25T22:51:27.775Z,2.50
2018-08-25T22:56:31.221Z,4.43
2018-08-25T23:01:34.886Z,1.50
2018-08-25T23:06:38.506Z,3.33
2018-08-25T23:11:42.074Z,2.30
2018-08-25T23:16:45.613Z,3.70
2018-08-25T23:21:49.079Z,1.47
2018-08-25T23:26:52.633Z,1.07
2018-08-25T23:31:56.142Z,1.13
2018-08-25T23:36:59.695Z,3.90
2018-08-25T23:42:03.318Z,0.90
2018-08-25T23:47:07.001Z,2.57
2018-08-25T23:52:10.936Z,5.10
2018-08-25T23:57:14.450Z,1.07
